Aviation Digital Data Service (ADDS)

Output produced by METARs form (0237 UTC 18 June 2019)
found at http://www.aviationweather.gov/metar/data/
 
Forecast for: WBGR (MIRI/KALIMANTAN , MY)
Text: TAF WBGR 172300Z 1800/1900 12003KT 9999 FEW016
Forecast period: 0000 UTC 18 June 2019 to 0000 UTC 19 June 2019
Forecast type: FROM: standard forecast or significant change
Winds: from the ESE (120 degrees) at 3 MPH (3 knots; 1.5 m/s)
Visibility: 6 or more miles 10+ km)
Ceiling: at least 12,000 feet AGL
Clouds: few clouds at 1600 feet AGL
Weather: no significant weather forecast for this period
Text: TEMPO 1806/1810 30007KT 4000 TSRA FEW015CB
Forecast period: 0600 to 1000 UTC 18 June 2019
Forecast type: TEMPORARY: The following changes expected for less than half the time period
Winds: from the WNW (300 degrees) at 8 MPH (7 knots; 3.6 m/s)
Visibility: 2.49 miles (4.01 km)
Ceiling: at least 12,000 feet AGL
Clouds: few clouds at 1500 feet AGL
Weather: TSRA  (rain associated with thunderstorm(s))